Time;durP1;ratioP1;P1;durP2;ratioP2;P2;SDS_P1;SDS_P2;PMS_P1;PMS_P2;Temp;Humidity;BMP_temperature;BMP_pressure;BME280_temperature;BME280_humidity;BME280_pressure;Samples;Min_cycle;Max_cycle;Signal;HPM_P1;HPM_P2
2023/07/07 00:00:13;;;;;;;6.57;2.88;;;;;;;20.45;75.47;101079.03;5082580;28;20051;-82
2023/07/07 00:02:57;;;;;;;8.15;2.35;;;;;;;20.72;73.37;101082.56;5081275;28;20059;-81
2023/07/07 00:05:43;;;;;;;4.07;2.20;;;;;;;20.67;73.99;101085.63;5068364;28;20047;-81
2023/07/07 00:08:28;;;;;;;3.60;2.33;;;;;;;20.93;72.75;101082.81;5081611;28;20063;-81
2023/07/07 00:11:13;;;;;;;8.00;2.05;;;;;;;21.02;72.64;101082.53;5084644;28;20111;-81
2023/07/07 00:13:57;;;;;;;3.42;2.13;;;;;;;20.98;72.43;101078.13;5081544;28;20055;-82
2023/07/07 00:16:42;;;;;;;5.70;2.42;;;;;;;21.06;71.89;101075.06;5084409;28;20048;-80
2023/07/07 00:19:32;;;;;;;4.00;2.38;;;;;;;20.28;74.80;101090.56;5069430;28;20409;-81
2023/07/07 00:22:17;;;;;;;4.30;2.20;;;;;;;19.70;76.34;101080.94;5081330;28;20043;-81
2023/07/07 00:25:03;;;;;;;3.20;1.80;;;;;;;19.81;75.81;101076.41;5078256;28;20060;-80
2023/07/07 00:27:48;;;;;;;5.90;2.38;;;;;;;19.92;75.18;101080.94;5077508;28;20047;-79
2023/07/07 00:30:33;;;;;;;;;;;;;;;20.18;76.26;101079.34;5064815;28;20084;-81
2023/07/07 00:33:17;;;;;;;7.35;2.05;;;;;;;20.31;72.47;101080.78;5068600;28;19912;-80
2023/07/07 00:36:02;;;;;;;5.07;2.38;;;;;;;20.20;73.20;101077.84;5077175;28;20405;-80
2023/07/07 00:38:47;;;;;;;5.68;1.90;;;;;;;20.40;73.18;101084.88;5079288;28;20053;-80
2023/07/07 00:41:32;;;;;;;3.60;1.75;;;;;;;20.51;70.22;101079.50;5078239;28;20051;-80
2023/07/07 00:44:18;;;;;;;8.18;2.55;;;;;;;20.39;71.02;101075.00;5078799;28;20047;-81
2023/07/07 00:47:02;;;;;;;7.10;1.83;;;;;;;20.19;72.15;101084.53;5079884;28;20052;-81
2023/07/07 00:49:47;;;;;;;2.50;1.75;;;;;;;20.46;71.00;101080.63;5064218;28;20051;-80
2023/07/07 00:52:32;;;;;;;4.72;1.98;;;;;;;20.65;70.07;101082.44;5077390;28;20067;-81
2023/07/07 00:55:28;;;;;;;5.57;2.00;;;;;;;20.70;69.53;101076.59;5071583;28;21729;-80
2023/07/07 00:58:16;;;;;;;4.97;1.80;;;;;;;20.77;68.13;101073.13;5069875;28;20071;-80
2023/07/07 01:01:12;;;;;;;4.75;1.73;;;;;;;20.75;68.30;101081.00;5066023;28;20055;-81
2023/07/07 01:04:04;;;;;;;4.68;2.03;;;;;;;20.45;69.34;101076.25;5072348;28;20047;-80
2023/07/07 01:06:56;;;;;;;7.65;2.45;;;;;;;20.56;70.59;101083.91;5073359;28;20048;-80
2023/07/07 01:09:41;;;;;;;6.07;2.45;;;;;;;20.58;69.97;101087.88;5070617;28;20107;-80
2023/07/07 01:12:25;;;;;;;7.82;2.45;;;;;;;20.20;71.18;101093.59;5064653;28;20043;-80
2023/07/07 01:15:10;;;;;;;12.00;2.72;;;;;;;20.22;70.50;101092.06;5077357;28;20540;-80
2023/07/07 01:18:12;;;;;;;3.55;1.83;;;;;;;20.31;69.96;101084.34;5069166;28;20095;-80
2023/07/07 01:21:12;;;;;;;3.67;1.90;;;;;;;20.24;69.35;101078.69;5069742;28;20048;-81
2023/07/07 01:24:09;;;;;;;12.45;3.10;;;;;;;20.26;70.46;101081.88;5079437;28;20532;-80
2023/07/07 01:27:10;;;;;;;4.45;1.73;;;;;;;20.19;70.09;101079.00;5081334;28;20047;-80
2023/07/07 01:29:57;;;;;;;9.23;1.77;;;;;;;20.13;69.80;101079.66;5081380;28;20047;-80
2023/07/07 01:32:43;;;;;;;7.10;1.98;;;;;;;19.88;70.93;101076.50;5072780;28;20048;-80
2023/07/07 01:35:28;;;;;;;13.93;2.33;;;;;;;19.91;71.75;101078.56;5068457;28;20056;-80
2023/07/07 01:38:36;;;;;;;4.55;2.05;;;;;;;20.14;71.17;101078.50;5063534;28;20134;-80
2023/07/07 01:41:33;;;;;;;6.43;1.55;;;;;;;20.04;70.05;101074.41;5075749;28;20039;-81
2023/07/07 01:44:32;;;;;;;7.00;2.47;;;;;;;20.15;68.60;101080.91;5083386;28;20056;-81
2023/07/07 01:47:20;;;;;;;8.80;2.47;;;;;;;19.92;69.33;101072.66;5063040;28;20044;-81
2023/07/07 01:50:26;;;;;;;8.45;1.85;;;;;;;19.65;70.81;101076.53;5076750;28;20055;-79
2023/07/07 01:53:17;;;;;;;9.98;2.28;;;;;;;19.92;70.43;101077.38;5059467;28;20444;-80
2023/07/07 01:56:04;;;;;;;7.13;2.35;;;;;;;19.66;71.61;101091.13;5061470;28;20048;-81
2023/07/07 01:58:50;;;;;;;4.95;1.85;;;;;;;19.72;71.69;101084.13;5054044;28;20114;-80
2023/07/07 02:01:35;;;;;;;3.50;1.55;;;;;;;19.91;70.33;101078.56;5081042;28;20047;-80
2023/07/07 02:04:20;;;;;;;3.63;2.03;;;;;;;19.72;70.99;101078.59;5078734;28;20046;-80
2023/07/07 02:07:07;;;;;;;4.50;2.10;;;;;;;19.39;73.04;101085.50;5066064;28;20048;-80
2023/07/07 02:09:52;;;;;;;2.70;1.92;;;;;;;19.33;73.45;101084.19;5071254;28;20551;-81
2023/07/07 02:12:37;;;;;;;14.00;2.40;;;;;;;19.61;71.73;101084.72;5083464;28;20055;-81
2023/07/07 02:15:21;;;;;;;7.03;2.35;;;;;;;19.65;72.86;101098.63;5081153;28;20052;-82
2023/07/07 02:18:06;;;;;;;7.28;2.03;;;;;;;19.73;72.77;101086.53;5084699;28;20051;-81
2023/07/07 02:20:51;;;;;;;9.52;1.95;;;;;;;19.88;71.35;101088.34;5081682;28;20429;-81
2023/07/07 02:23:35;;;;;;;4.38;1.88;;;;;;;20.00;69.09;101095.66;5079944;28;20056;-81
2023/07/07 02:26:20;;;;;;;;;;;;;;;19.91;69.79;101097.88;5066419;28;20048;-81
2023/07/07 02:29:05;;;;;;;4.85;1.65;;;;;;;19.59;72.27;101105.59;5065037;28;19912;-82
2023/07/07 02:31:50;;;;;;;9.82;1.83;;;;;;;19.17;73.87;101100.03;5072102;28;20055;-81
2023/07/07 02:34:35;;;;;;;2.22;1.45;;;;;;;19.64;70.75;101105.28;5071566;28;20065;-81
2023/07/07 02:37:21;;;;;;;8.98;2.22;;;;;;;19.80;70.14;101099.66;5050048;28;20044;-81
2023/07/07 02:40:06;;;;;;;2.80;1.60;;;;;;;19.89;69.21;101103.75;5063461;28;20051;-80
2023/07/07 02:42:51;;;;;;;5.10;2.30;;;;;;;19.91;69.17;101106.94;5051531;28;20056;-79
2023/07/07 02:45:36;;;;;;;8.55;2.53;;;;;;;19.97;68.43;101102.69;5075350;28;20080;-81
2023/07/07 02:48:22;;;;;;;10.30;2.10;;;;;;;19.98;68.28;101098.78;5070933;28;20052;-80
2023/07/07 02:51:07;;;;;;;4.53;1.95;;;;;;;19.94;68.04;101105.41;5062439;28;20060;-82
2023/07/07 02:53:52;;;;;;;7.00;1.40;;;;;;;19.21;73.28;101103.66;5063615;28;20048;-82
2023/07/07 02:56:36;;;;;;;5.05;2.72;;;;;;;19.45;72.24;101114.41;5062774;28;20048;-82
2023/07/07 02:59:21;;;;;;;3.05;1.27;;;;;;;19.77;70.05;101114.19;5053589;28;20043;-84
2023/07/07 03:02:06;;;;;;;10.32;1.95;;;;;;;20.00;70.43;101114.97;5064816;28;20051;-82
2023/07/07 03:04:52;;;;;;;5.78;2.25;;;;;;;20.24;70.45;101114.59;5049512;28;20090;-81
2023/07/07 03:07:36;;;;;;;14.25;2.25;;;;;;;20.40;66.41;101115.25;5081114;28;20039;-82
2023/07/07 03:10:21;;;;;;;3.80;1.77;;;;;;;20.12;69.61;101117.53;5066360;28;20048;-82
2023/07/07 03:13:06;;;;;;;13.13;2.53;;;;;;;20.13;69.38;101116.38;5051083;28;20055;-82
2023/07/07 03:15:57;;;;;;;3.30;1.77;;;;;;;20.48;69.88;101107.88;5100408;23;20051;-84
2023/07/07 03:18:43;;;;;;;6.78;1.80;;;;;;;20.65;68.64;101114.81;5097432;28;20408;-80
2023/07/07 03:21:34;;;;;;;6.45;1.85;;;;;;;20.70;66.39;101117.25;5092830;28;20066;-79
2023/07/07 03:24:37;;;;;;;5.45;1.70;;;;;;;20.70;66.39;101122.78;5085297;28;20062;-79
2023/07/07 03:27:30;;;;;;;3.05;1.75;;;;;;;20.05;67.81;101134.00;5082935;28;20039;-80
2023/07/07 03:30:15;;;;;;;7.78;1.98;;;;;;;20.36;65.83;101128.22;5080006;28;20512;-79
2023/07/07 03:33:13;;;;;;;4.95;1.73;;;;;;;20.30;66.47;101126.91;5085449;28;20039;-79
2023/07/07 03:36:00;;;;;;;5.13;1.60;;;;;;;20.26;68.42;101131.59;5081558;28;20055;-79
2023/07/07 03:38:45;;;;;;;6.45;1.77;;;;;;;20.51;68.13;101131.19;5071364;28;20945;-77
2023/07/07 03:41:31;;;;;;;3.63;1.83;;;;;;;20.74;67.83;101137.44;5093324;28;20499;-79
2023/07/07 03:44:18;;;;;;;12.75;2.40;;;;;;;20.79;67.27;101143.44;5095165;28;20043;-80
2023/07/07 03:47:03;;;;;;;7.30;2.30;;;;;;;21.10;66.19;101142.28;5093313;28;20420;-79
2023/07/07 03:49:49;;;;;;;5.93;2.38;;;;;;;21.02;65.69;101146.16;5083259;28;20047;-78
2023/07/07 03:52:34;;;;;;;15.82;2.00;;;;;;;20.84;65.41;101142.31;5088064;28;20042;-79
2023/07/07 03:55:20;;;;;;;13.18;2.15;;;;;;;20.95;66.63;101151.56;5079432;28;20039;-78
2023/07/07 03:58:05;;;;;;;7.68;2.22;;;;;;;21.14;65.97;101156.97;5095727;28;20051;-79
2023/07/07 04:00:51;;;;;;;7.90;2.03;;;;;;;21.22;65.50;101147.63;5092149;28;20063;-78
2023/07/07 04:03:36;;;;;;;6.80;2.08;;;;;;;21.27;64.28;101141.75;5089023;28;20093;-80
2023/07/07 04:06:22;;;;;;;2.35;1.48;;;;;;;21.40;62.54;101133.16;5091524;28;20051;-79
2023/07/07 04:09:06;;;;;;;7.40;2.05;;;;;;;21.45;60.48;101143.91;5089847;28;20050;-76
2023/07/07 04:11:51;;;;;;;;;;;;;;;21.44;61.81;101145.06;5100390;27;20043;-79
2023/07/07 04:14:36;;;;;;;8.38;1.50;;;;;;;21.41;62.67;101146.63;5086395;28;19931;-75
2023/07/07 04:17:21;;;;;;;7.75;1.98;;;;;;;21.35;62.54;101142.59;5090854;28;20102;-78
2023/07/07 04:20:06;;;;;;;6.53;1.60;;;;;;;21.46;63.55;101151.03;5081962;28;20054;-79
2023/07/07 04:22:51;;;;;;;5.68;1.67;;;;;;;21.28;62.55;101148.06;5090231;28;20527;-78
2023/07/07 04:25:37;;;;;;;9.88;2.38;;;;;;;21.27;61.69;101152.00;5096899;28;20408;-79
2023/07/07 04:28:21;;;;;;;4.63;1.85;;;;;;;21.19;61.85;101151.13;5077051;28;20039;-79
2023/07/07 04:31:08;;;;;;;8.85;1.58;;;;;;;21.28;61.74;101156.38;5092434;28;20508;-79
2023/07/07 04:33:54;;;;;;;4.75;1.58;;;;;;;21.00;62.78;101154.00;5091542;28;20412;-79
2023/07/07 04:36:40;;;;;;;11.27;2.60;;;;;;;21.18;62.55;101157.03;5092523;28;20046;-81
2023/07/07 04:39:24;;;;;;;10.55;2.10;;;;;;;21.25;62.64;101159.88;5072585;28;20051;-78
2023/07/07 04:42:09;;;;;;;4.75;2.08;;;;;;;21.20;61.72;101160.22;5088938;28;20054;-80
2023/07/07 04:44:53;;;;;;;5.85;1.83;;;;;;;21.23;61.46;101157.47;5086761;28;20519;-80
2023/07/07 04:47:38;;;;;;;;;;;;;;;21.16;61.60;101156.59;5109985;28;20519;-79
2023/07/07 04:50:23;;;;;;;8.47;2.00;;;;;;;21.33;63.39;101162.34;5110781;28;19927;-79
2023/07/07 04:53:07;;;;;;;;;;;;;;;21.54;63.21;101174.84;5071094;28;20043;-79
2023/07/07 04:55:52;;;;;;;3.50;1.53;;;;;;;21.48;63.60;101182.72;5091180;28;19912;-81
2023/07/07 04:58:39;;;;;;;5.78;2.70;;;;;;;21.72;62.71;101184.94;5077173;28;20039;-81
2023/07/07 05:01:26;;;;;;;5.55;2.53;;;;;;;21.74;62.85;101181.78;5074832;28;20051;-80
2023/07/07 05:04:11;;;;;;;4.72;2.75;;;;;;;21.86;62.42;101198.13;5092956;28;20051;-80
2023/07/07 05:06:56;;;;;;;13.88;3.55;;;;;;;21.73;63.17;101197.63;5091493;28;20063;-81
2023/07/07 05:09:40;;;;;;;10.35;2.55;;;;;;;21.89;62.63;101202.13;5080814;28;20408;-79
2023/07/07 05:12:25;;;;;;;6.50;2.63;;;;;;;21.77;62.59;101203.19;5075218;28;20043;-81
2023/07/07 05:15:10;;;;;;;6.18;2.63;;;;;;;21.29;63.36;101214.06;5091613;28;20058;-81
2023/07/07 05:17:54;;;;;;;8.77;2.42;;;;;;;21.48;63.67;101215.13;5083925;28;20051;-81
2023/07/07 05:20:39;;;;;;;;;;;;;;;21.33;62.47;101216.91;5088715;28;20055;-81
2023/07/07 05:23:23;;;;;;;5.00;2.58;;;;;;;20.99;67.62;101213.25;5094839;28;19912;-80
2023/07/07 05:26:09;;;;;;;12.45;2.78;;;;;;;21.50;65.61;101210.78;5081138;28;20514;-81
2023/07/07 05:28:57;;;;;;;39.22;5.55;;;;;;;21.98;64.72;101214.53;5069341;28;20048;-80
2023/07/07 05:31:41;;;;;;;34.08;5.05;;;;;;;21.67;66.44;101214.94;5089756;28;20043;-80
2023/07/07 05:34:26;;;;;;;8.60;2.15;;;;;;;21.49;65.70;101220.25;5085554;28;20051;-80
2023/07/07 05:37:11;;;;;;;15.55;2.75;;;;;;;21.60;65.60;101217.63;5101289;28;20046;-80
2023/07/07 05:39:56;;;;;;;12.32;3.03;;;;;;;21.53;66.78;101214.78;5061271;28;20052;-81
2023/07/07 05:42:41;;;;;;;10.90;3.42;;;;;;;21.91;65.81;101228.25;5064508;28;20048;-79
2023/07/07 05:45:26;;;;;;;20.98;7.28;;;;;;;21.96;66.21;101241.78;5078571;28;20047;-81
2023/07/07 05:48:12;;;;;;;26.42;5.78;;;;;;;22.29;64.38;101240.16;5087790;28;20047;-78
2023/07/07 05:51:03;;;;;;;14.88;5.50;;;;;;;22.66;63.59;101237.28;5072991;28;20496;-81
2023/07/07 05:53:48;;;;;;;16.67;4.18;;;;;;;22.79;63.21;101236.63;5082420;28;20039;-80
2023/07/07 05:56:33;;;;;;;10.38;3.40;;;;;;;22.67;63.24;101249.97;5094183;28;20047;-78
2023/07/07 05:59:17;;;;;;;17.30;3.13;;;;;;;22.55;63.78;101248.31;5099271;28;20059;-79
2023/07/07 06:02:02;;;;;;;20.55;3.85;;;;;;;22.53;63.33;101253.41;5098072;28;20315;-79
2023/07/07 06:04:47;;;;;;;16.95;3.58;;;;;;;22.64;63.22;101246.00;5082557;28;20059;-78
2023/07/07 06:07:31;;;;;;;9.80;2.85;;;;;;;22.59;62.98;101254.66;5083016;28;20048;-79
2023/07/07 06:10:17;;;;;;;10.00;3.75;;;;;;;22.59;63.53;101249.13;5098124;28;20515;-81
2023/07/07 06:13:03;;;;;;;10.02;2.45;;;;;;;22.51;60.35;101253.78;5090857;28;20051;-79
2023/07/07 06:15:47;;;;;;;7.10;2.72;;;;;;;22.58;62.37;101256.63;5082319;28;20040;-80
2023/07/07 06:18:32;;;;;;;10.13;2.60;;;;;;;22.67;62.69;101253.53;5082591;28;20059;-80
2023/07/07 06:21:17;;;;;;;9.15;2.63;;;;;;;22.78;62.42;101261.97;5081073;28;20051;-79
2023/07/07 06:24:02;;;;;;;7.95;2.75;;;;;;;22.77;61.49;101263.94;5084819;28;20428;-80
2023/07/07 06:26:47;;;;;;;8.85;2.85;;;;;;;22.72;61.47;101258.75;5082891;28;20051;-80
2023/07/07 06:29:35;;;;;;;9.20;2.35;;;;;;;22.66;60.46;101260.25;5078510;28;20047;-78
2023/07/07 06:32:19;;;;;;;4.57;2.00;;;;;;;22.78;60.79;101273.06;5091593;28;20544;-82
2023/07/07 06:35:04;;;;;;;8.25;1.95;;;;;;;22.85;60.39;101265.59;5096725;28;20046;-79
2023/07/07 06:37:49;;;;;;;11.20;2.33;;;;;;;22.82;60.23;101273.88;5093470;28;20412;-79
2023/07/07 06:40:34;;;;;;;5.97;2.42;;;;;;;22.90;60.84;101275.53;5093433;28;20050;-80
2023/07/07 06:43:19;;;;;;;11.25;1.90;;;;;;;22.98;60.68;101280.75;5083309;28;20047;-79
2023/07/07 06:46:04;;;;;;;;;;;;;;;23.11;60.52;101280.44;5079661;28;20051;-79
2023/07/07 06:48:48;;;;;;;7.95;3.03;;;;;;;23.19;59.01;101282.06;5079190;28;19912;-80
2023/07/07 06:51:33;;;;;;;;;;;;;;;23.21;60.21;101285.25;5083755;28;20055;-79
2023/07/07 06:54:17;;;;;;;7.47;2.70;;;;;;;23.21;60.13;101290.81;5096903;28;19912;-81
2023/07/07 06:57:02;;;;;;;6.68;2.50;;;;;;;23.21;60.35;101286.03;5079494;28;20047;-79
2023/07/07 06:59:47;;;;;;;4.75;2.17;;;;;;;23.34;60.58;101294.84;5094024;28;20405;-79
2023/07/07 07:02:31;;;;;;;5.68;1.98;;;;;;;23.37;60.48;101292.06;5081255;28;20431;-80
2023/07/07 07:05:17;;;;;;;6.13;2.72;;;;;;;23.42;59.87;101293.69;5092894;28;20051;-78
2023/07/07 07:08:01;;;;;;;5.30;2.78;;;;;;;23.54;58.92;101298.94;5092882;28;20401;-79
2023/07/07 07:10:46;;;;;;;4.93;2.92;;;;;;;23.70;57.90;101291.09;5095966;28;20520;-79
2023/07/07 07:13:32;;;;;;;5.85;2.30;;;;;;;23.92;55.97;101285.63;5094055;28;20051;-79
2023/07/07 07:16:17;;;;;;;5.35;2.28;;;;;;;23.82;55.24;101295.50;5092724;28;20072;-80
2023/07/07 07:19:02;;;;;;;3.80;2.20;;;;;;;23.83;56.57;101300.66;5081234;28;20054;-79
2023/07/07 07:21:47;;;;;;;6.43;2.63;;;;;;;23.84;57.46;101290.34;5092691;28;20122;-77
2023/07/07 07:24:32;;;;;;;10.45;2.38;;;;;;;23.86;57.01;101305.44;5097210;28;20110;-79
2023/07/07 07:27:16;;;;;;;;;;;;;;;24.10;56.00;101303.13;5082033;28;20063;-80
2023/07/07 07:30:01;;;;;;;8.18;2.08;;;;;;;23.97;57.10;101302.69;5093156;28;19912;-78
2023/07/07 07:32:45;;;;;;;5.95;2.08;;;;;;;24.10;55.42;101294.78;5092447;28;20055;-79
2023/07/07 07:35:30;;;;;;;4.85;2.00;;;;;;;24.32;54.52;101302.03;5079353;28;20054;-80
2023/07/07 07:38:16;;;;;;;4.60;1.63;;;;;;;24.17;57.12;101308.75;5091545;28;20047;-80
2023/07/07 07:41:01;;;;;;;6.47;2.38;;;;;;;24.07;54.93;101301.94;5088345;28;20055;-84
2023/07/07 07:43:46;;;;;;;6.13;2.38;;;;;;;24.56;54.32;101306.81;5089720;28;20439;-79
2023/07/07 07:46:30;;;;;;;;;;;;;;;24.53;54.97;101307.59;5105747;28;20516;-80
2023/07/07 07:49:15;;;;;;;5.50;2.10;;;;;;;24.36;55.94;101302.81;5106296;28;19916;-80
2023/07/07 07:52:00;;;;;;;3.38;1.60;;;;;;;24.57;54.46;101310.41;5082104;28;20059;-78
2023/07/07 07:54:45;;;;;;;4.95;2.15;;;;;;;24.67;53.42;101307.63;5096065;28;20070;-79
2023/07/07 07:57:30;;;;;;;5.25;2.10;;;;;;;24.70;53.32;101309.59;5077990;28;20047;-80
2023/07/07 08:00:15;;;;;;;7.60;2.60;;;;;;;24.92;51.30;101304.88;5096500;28;20514;-80
2023/07/07 08:03:01;;;;;;;5.88;2.50;;;;;;;25.31;50.10;101304.78;5091939;28;20062;-80
2023/07/07 08:05:46;;;;;;;4.57;2.05;;;;;;;25.24;50.45;101310.41;5090756;28;20122;-81
2023/07/07 08:08:30;;;;;;;5.18;1.88;;;;;;;25.37;50.35;101307.97;5088533;28;20055;-80
2023/07/07 08:11:20;;;;;;;14.05;2.13;;;;;;;25.51;50.46;101311.50;5092013;28;20052;-84
2023/07/07 08:14:04;;;;;;;3.95;2.45;;;;;;;25.81;49.74;101311.03;5084458;28;20413;-82
2023/07/07 08:16:51;;;;;;;11.75;2.42;;;;;;;25.50;50.12;101300.75;5083829;28;20042;-81
2023/07/07 08:19:38;;;;;;;10.38;3.22;;;;;;;25.56;49.89;101299.19;5098469;28;20245;-80
2023/07/07 08:22:25;;;;;;;6.28;2.80;;;;;;;25.37;51.10;101305.97;5078024;28;20043;-80
2023/07/07 08:25:10;;;;;;;4.43;2.60;;;;;;;25.48;50.71;101314.31;5092997;28;20670;-84
2023/07/07 08:27:54;;;;;;;4.13;2.70;;;;;;;25.62;50.68;101316.28;5079844;28;20043;-82
2023/07/07 08:30:39;;;;;;;5.80;2.40;;;;;;;25.40;50.94;101307.16;5092919;28;20051;-81
2023/07/07 08:33:23;;;;;;;5.57;2.15;;;;;;;25.69;49.61;101303.13;5081579;28;20102;-83
2023/07/07 08:36:08;;;;;;;4.57;2.47;;;;;;;25.82;49.57;101304.25;5091228;28;20075;-82
2023/07/07 08:38:52;;;;;;;7.57;2.38;;;;;;;25.85;49.65;101309.00;5091802;28;20039;-82
2023/07/07 08:41:38;;;;;;;;;;;;;;;25.73;49.80;101314.25;5062716;28;20059;-79
2023/07/07 08:44:24;;;;;;;3.95;2.05;;;;;;;25.78;49.91;101313.84;5060347;28;19913;-80
2023/07/07 08:47:41;;;;;;;7.43;2.45;;;;;;;25.97;49.61;101313.34;5072110;28;20043;-82
2023/07/07 08:50:37;;;;;;;4.43;2.00;;;;;;;26.11;49.80;101310.47;5078421;28;20412;-79
2023/07/07 08:53:30;;;;;;;6.28;1.77;;;;;;;26.87;46.67;101311.59;5073300;28;20043;-79
2023/07/07 08:56:29;;;;;;;3.67;2.13;;;;;;;26.28;48.69;101309.63;5095043;28;20039;-83
2023/07/07 08:59:37;;;;;;;2.63;1.83;;;;;;;26.57;47.33;101310.19;5086305;28;20063;-82
2023/07/07 09:02:25;;;;;;;5.68;1.83;;;;;;;26.86;45.07;101308.00;5079284;28;20392;-82
2023/07/07 09:05:20;;;;;;;8.95;2.38;;;;;;;26.79;45.82;101308.84;5086359;28;20047;-82
2023/07/07 09:08:22;;;;;;;2.90;1.80;;;;;;;26.60;47.34;101309.41;5073555;28;20039;-80
2023/07/07 09:11:27;;;;;;;7.72;3.35;;;;;;;26.64;47.64;101314.94;5094631;28;20047;-81
2023/07/07 09:14:23;;;;;;;;;;;;;;;26.83;46.98;101303.22;5088523;28;20031;-79
2023/07/07 09:17:19;;;;;;;4.45;2.10;;;;;;;26.80;46.97;101306.84;4989043;28;19922;-79
2023/07/07 09:20:06;;;;;;;5.55;2.15;;;;;;;26.37;48.59;101304.38;4997330;28;20045;-79
2023/07/07 09:22:58;;;;;;;4.43;2.80;;;;;;;26.65;47.99;101299.78;4998999;28;20053;-79
2023/07/07 09:25:55;;;;;;;7.30;2.28;;;;;;;26.57;48.43;101303.81;4991716;28;20046;-79
2023/07/07 09:28:45;;;;;;;8.90;2.40;;;;;;;26.84;46.98;101296.44;4996482;28;20057;-79
2023/07/07 09:31:43;;;;;;;5.70;2.83;;;;;;;27.01;47.28;101292.72;4999853;28;20038;-79
2023/07/07 09:34:30;;;;;;;7.25;2.33;;;;;;;27.08;47.29;101301.00;5013760;28;21027;-80
2023/07/07 09:37:49;;;;;;;5.75;2.50;;;;;;;27.15;46.04;101308.53;4984261;28;20057;-79
2023/07/07 09:40:40;;;;;;;4.80;1.95;;;;;;;27.58;45.84;101300.53;5006416;28;20049;-79
2023/07/07 09:43:28;;;;;;;2.30;1.88;;;;;;;27.15;46.17;101297.38;4988803;28;20041;-79
2023/07/07 09:46:28;;;;;;;5.28;1.88;;;;;;;27.01;46.70;101303.09;4995561;28;20061;-79
2023/07/07 09:49:21;;;;;;;8.15;2.40;;;;;;;27.30;44.88;101298.81;4997080;28;20061;-81
2023/07/07 09:52:06;;;;;;;3.25;2.10;;;;;;;26.96;46.60;101298.75;5002127;28;20053;-80
2023/07/07 09:54:51;;;;;;;;;;;;;;;26.92;47.48;101295.19;4996763;28;20042;-81
2023/07/07 09:57:41;;;;;;;4.97;2.58;;;;;;;27.21;46.30;101304.88;5006317;28;20098;-81
2023/07/07 10:00:28;;;;;;;3.55;2.00;;;;;;;27.22;45.56;101308.47;5011603;28;20042;-81
2023/07/07 10:03:43;;;;;;;4.32;2.05;;;;;;;27.38;45.85;101299.53;5000042;28;20057;-81
2023/07/07 10:06:39;;;;;;;3.08;1.98;;;;;;;27.57;44.43;101312.91;5000368;28;20419;-78
2023/07/07 10:09:26;;;;;;;4.15;2.28;;;;;;;27.34;44.57;101309.94;5008968;28;20050;-81
2023/07/07 10:12:15;;;;;;;3.33;2.13;;;;;;;27.25;44.41;101302.06;5000812;28;20049;-79
2023/07/07 10:14:59;;;;;;;8.48;2.17;;;;;;;27.26;44.62;101308.44;4993820;28;20049;-81
2023/07/07 10:17:59;;;;;;;4.97;1.92;;;;;;;27.39;44.52;101312.28;4992676;28;20041;-81
2023/07/07 10:20:44;;;;;;;2.33;1.70;;;;;;;27.38;45.57;101316.28;4994108;28;20050;-81
2023/07/07 10:23:29;;;;;;;4.68;1.85;;;;;;;27.55;43.98;101304.13;4980042;28;20049;-80
2023/07/07 10:26:14;;;;;;;2.60;1.75;;;;;;;27.56;44.39;101306.53;5002042;28;20065;-81
2023/07/07 10:29:02;;;;;;;3.13;1.65;;;;;;;27.37;43.14;101314.69;4985759;28;20049;-81
2023/07/07 10:31:48;;;;;;;2.58;1.65;;;;;;;27.72;44.71;101313.53;5001898;28;20548;-81
2023/07/07 10:34:37;;;;;;;2.42;1.92;;;;;;;27.52;42.95;101319.75;4999393;28;20042;-81
2023/07/07 10:37:29;;;;;;;3.45;2.15;;;;;;;27.47;44.90;101311.78;4998573;28;20061;-81
2023/07/07 10:40:21;;;;;;;5.78;1.98;;;;;;;27.97;43.28;101319.59;4994956;28;20042;-81
2023/07/07 10:43:09;;;;;;;3.60;1.83;;;;;;;28.20;41.28;101321.69;4991218;28;20057;-81
2023/07/07 10:45:53;;;;;;;2.83;2.00;;;;;;;27.98;42.12;101316.38;4993205;28;20045;-81
2023/07/07 10:48:44;;;;;;;6.78;2.35;;;;;;;27.96;43.40;101321.59;5006970;28;20427;-81
2023/07/07 10:51:35;;;;;;;2.53;1.83;;;;;;;28.36;40.94;101322.66;5007103;28;20057;-81
2023/07/07 10:54:38;;;;;;;2.80;1.77;;;;;;;28.28;41.58;101312.78;4993887;28;20058;-81
2023/07/07 10:57:49;;;;;;;2.10;1.42;;;;;;;27.98;41.98;101310.78;5006864;28;20041;-81
2023/07/07 11:01:11;;;;;;;4.38;1.77;;;;;;;27.77;42.31;101301.88;5008949;28;20407;-81
2023/07/07 11:04:24;;;;;;;4.00;1.90;;;;;;;28.05;42.59;101304.28;4994128;28;20046;-81
2023/07/07 11:07:15;;;;;;;2.60;1.88;;;;;;;28.00;42.72;101313.94;5012433;28;20057;-81
2023/07/07 11:10:37;;;;;;;6.65;2.50;;;;;;;27.65;43.29;101311.59;4990206;28;20061;-80
2023/07/07 11:13:52;;;;;;;3.60;2.38;;;;;;;27.85;42.89;101311.75;5010886;28;20054;-81
2023/07/07 11:16:55;;;;;;;29.70;3.45;;;;;;;28.03;42.30;101301.94;4989943;28;20044;-81
2023/07/07 11:19:40;;;;;;;2.70;1.65;;;;;;;27.83;43.63;101303.81;4979355;28;20656;-80
2023/07/07 11:22:34;;;;;;;3.08;1.85;;;;;;;28.07;42.12;101299.88;4978610;28;20050;-81
2023/07/07 11:25:21;;;;;;;2.97;1.95;;;;;;;28.35;41.56;101306.28;4984157;28;20415;-81
2023/07/07 11:28:29;;;;;;;3.38;1.58;;;;;;;27.93;43.13;101300.06;5009123;28;20126;-82
2023/07/07 11:31:51;;;;;;;3.40;1.80;;;;;;;28.48;40.99;101305.28;5008174;28;20049;-82
2023/07/07 11:34:48;;;;;;;4.90;1.95;;;;;;;28.12;43.16;101300.63;4991135;28;20037;-82
2023/07/07 11:37:39;;;;;;;3.30;2.00;;;;;;;28.14;42.38;101298.22;4996328;28;20045;-82
2023/07/07 11:40:53;;;;;;;7.32;1.80;;;;;;;28.14;42.58;101295.44;4986683;28;20610;-82
2023/07/07 11:44:05;;;;;;;7.65;2.80;;;;;;;28.62;41.90;101303.47;4996732;28;20053;-82
2023/07/07 11:46:56;;;;;;;2.55;1.63;;;;;;;28.44;42.23;101298.94;4993435;28;20050;-82
2023/07/07 11:50:05;;;;;;;2.97;1.70;;;;;;;28.55;41.66;101295.22;5008281;28;20049;-81
2023/07/07 11:53:14;;;;;;;2.55;1.58;;;;;;;28.46;41.18;101296.50;5016550;28;20045;-81
2023/07/07 11:56:02;;;;;;;4.45;2.42;;;;;;;28.64;41.03;101301.84;5011928;28;20053;-82
2023/07/07 11:59:14;;;;;;;3.80;2.13;;;;;;;28.56;41.75;101297.56;5007485;28;20415;-80
2023/07/07 12:02:02;;;;;;;4.18;1.80;;;;;;;28.33;43.01;101298.34;5002487;28;20053;-81
2023/07/07 12:04:50;;;;;;;3.42;1.80;;;;;;;28.64;41.68;101296.25;5002528;28;20045;-80
2023/07/07 12:07:43;;;;;;;4.40;1.77;;;;;;;28.88;40.42;101294.25;5005633;28;20049;-80
2023/07/07 12:10:36;;;;;;;3.58;2.33;;;;;;;28.70;41.12;101293.75;5008682;28;20050;-79
2023/07/07 12:13:26;;;;;;;2.17;1.35;;;;;;;27.79;43.68;101294.66;5008886;28;20049;-80
2023/07/07 12:16:21;;;;;;;2.95;1.80;;;;;;;28.44;41.65;101298.16;5008763;28;20049;-81
2023/07/07 12:19:33;;;;;;;2.60;1.80;;;;;;;28.52;41.28;101287.63;4990485;28;20049;-81
2023/07/07 12:22:29;;;;;;;2.83;1.80;;;;;;;28.55;40.87;101293.16;4992930;28;20042;-79
2023/07/07 12:25:23;;;;;;;7.82;2.05;;;;;;;28.41;42.35;101297.00;5003308;28;20053;-81
2023/07/07 12:28:09;;;;;;;5.60;2.10;;;;;;;28.11;42.07;101285.84;4988278;28;20053;-81
2023/07/07 12:30:54;;;;;;;3.67;1.92;;;;;;;28.25;41.96;101294.03;4994534;28;20428;-80
2023/07/07 12:33:40;;;;;;;4.72;1.90;;;;;;;28.43;41.47;101299.38;4998242;28;20049;-80
2023/07/07 12:36:29;;;;;;;4.85;2.38;;;;;;;28.60;41.84;101300.31;5007372;28;20049;-82
2023/07/07 12:39:14;;;;;;;4.53;1.83;;;;;;;28.50;40.54;101291.66;5008811;28;20037;-79
2023/07/07 12:41:59;;;;;;;3.22;1.90;;;;;;;28.41;42.31;101294.19;4999406;28;20058;-81
2023/07/07 12:44:45;;;;;;;3.95;1.80;;;;;;;28.72;41.19;101294.13;4994720;28;20037;-81
2023/07/07 12:47:32;;;;;;;4.15;1.80;;;;;;;28.74;40.07;101291.72;5011178;28;20046;-81
2023/07/07 12:50:25;;;;;;;11.13;2.10;;;;;;;28.19;40.90;101286.56;4998424;28;20542;-80
2023/07/07 12:53:34;;;;;;;3.30;1.80;;;;;;;28.73;40.36;101288.13;5000255;28;20065;-81
2023/07/07 12:56:31;;;;;;;2.78;1.80;;;;;;;28.72;39.95;101275.34;5000418;28;20277;-81
2023/07/07 12:59:37;;;;;;;3.65;1.75;;;;;;;28.30;42.04;101275.97;5000315;28;20045;-81
2023/07/07 13:02:24;;;;;;;3.38;1.80;;;;;;;29.22;41.27;101274.41;5000467;28;20270;-82
2023/07/07 13:05:21;;;;;;;5.40;2.00;;;;;;;33.42;32.89;101274.47;4988166;28;20061;-83
2023/07/07 13:08:06;;;;;;;48.35;3.97;;;;;;;34.36;30.44;101285.34;4992840;28;20050;-84